• 2 / 0.1
  • 164
  • 1983
Active Status Condo
Check Drive Time
See how long it takes to get to work. Change


Totally Renovated, 24 Hr Gated, Concierge Service, Gym, Pool, Shops, Playroom, Overlooking Beautifully Landscaped Backyard. Sound Proof Building, Exp Bus To City. One Block To Public Schools And Markets.

Address: 1 Bay Club Dr
State: NY
City: Bayside
County: Queens
Zip Code: 11360
MLS#: 3090569
MLS Area:
Taxes: 4359.00 $4,359

Price History

Date Price Event Change MLS#:
5/28/2019 $799,000 List Price -10.02% 3132370
5/21/2019 $888,000 List Price 4.47% 3105487
5/21/2019 $850,000 List Price -4.28% 3094987
5/19/2019 $888,000 List Price -1.22% 3124099
5/15/2019 $899,000 List Price -5.17% 3114877
5/1/2019 $948,000 List Price 48.36% 3124099
4/29/2019 $639,000 List Price -30.16% 3109667
4/27/2019 $915,000 List Price 1.1% 3105487
4/24/2019 $905,000 List Price 0.67% 3105487
4/24/2019 $899,000 List Price 32.6% 3099123
4/22/2019 $678,000 List Price -9.48% 3101595
4/19/2019 $749,000 List Price -20.99% 3079834
4/2/2019 $948,000 List Price 1.07% 3114877
4/2/2019 $938,000 List Price 42.34% 3099123
4/1/2019 $659,000 List Price -4.35% 3109667
3/15/2019 $689,000 List Price 0.58% 3109667
3/8/2019 $685,000 List Price -26.19% 3101595
3/3/2019 $928,000 List Price 69.03% 3105487
3/2/2019 $549,000 List Price -21.35% 3085965
2/15/2019 $698,000 List Price 25.09% 3101595
2/9/2019 $558,000 List Price -24.49% 3085965
2/9/2019 $739,000 List Price -22.05% 3076084
2/6/2019 $948,000 List Price 67.79% 3099123
2/5/2019 $565,000 List Price -24.16% 3085965
2/1/2019 $745,000 List Price -17.13% 3076084
1/22/2019 $899,000 List Price 69.94% 3094987
1/16/2019 $529,000 List Price -7.03% 3084857
1/14/2019 $569,000 List Price -40.11% 3085965
1/8/2019 $950,000 List Price 20.41% 3059337
1/7/2019 $789,000 List Price 16.89% 3079834
1/5/2019 $675,000 List Price -9.88% 3090569
1/3/2019 $749,000 List Price 50.1% 3076084
1/1/2019 $499,000 List Price -15.42% 3074333
12/24/2018 $590,000 List Price -1.65% 3085965
12/8/2018 $599,900 List Price 11.51% 3085965
12/3/2018 $538,000 List Price -30.04% 3084857
11/29/2018 $769,000 List Price 10.17% 3076084
11/15/2018 $698,000 List Price -15.8% 3072044
11/15/2018 $829,000 List Price 15.3% 3079834
11/14/2018 $719,000 List Price -10.01% 3065635
11/13/2018 $799,000 List Price 8.12% 3076084
11/2/2018 $739,000 List Price -25.95% 3065635
11/1/2018 $998,000 List Price 20.39% 3059337
10/31/2018 $829,000 List Price 44.17% 3076084
10/30/2018 $575,000 List Price 12.97% 3061398
10/25/2018 $509,000 List Price -10.39% 3074333
10/13/2018 $568,000 List Price -1.73% 3073150
10/11/2018 $578,000 List Price -19.61% 3061398
10/11/2018 $719,000 List Price -5.27% 3072044
10/10/2018 $759,000 List Price 55.21% 3065635
9/30/2018 $489,000 List Price -28.92% 3068954
9/26/2018 $688,000 List Price -11.68% 3062811
9/17/2018 $779,000 List Price 32.06% 3065635
9/11/2018 $589,880 List Price -15.49% 3061398
9/6/2018 $698,000 List Price -31.23% 3062811
8/22/2018 $1,015,000 List Price 81.25% 3059337
7/12/2018 $559,999 List Price -1.56% 3029822
7/10/2018 $568,888 List Price -1.75% 3031818
6/25/2018 $579,000 List Price -12.14% 3031818
6/13/2018 $659,000 List Price 73.88% 3025802
6/5/2018 $379,000 List Price -41.6% 3036457
5/21/2018 $649,000 List Price 8.35% 3032228
5/19/2018 $599,000 List Price 3.28% 3031818
5/16/2018 $580,000 List Price -17.02% 3029822
5/1/2018 $699,000 List Price -36.34% 3025802
4/12/2018 $1,098,000 List Price 34.72% 3020093
1/3/2018 $815,000 List Price 18.46% 2994017
12/29/2017 $688,000 List Price 20.91% 2993334
11/13/2017 $569,000 List Price -1.73% 2978654
10/16/2017 $579,000 List Price -26.52% 2978654
10/4/2017 $788,000 List Price -34.06% 2976032
10/3/2017 $1,195,000 List Price 117.67% 2975937
10/2/2017 $549,000 List Price -8.35% 2950831
9/27/2017 $599,000 List Price 11.13% 2966088
9/9/2017 $539,000 List Price -2.44% 2967505
8/8/2017 $552,500 List Price -17.29% 2950831
8/2/2017 $668,000 List Price -24.77% 2959203
7/30/2017 $888,000 List Price 8.42% 2953546
7/28/2017 $819,000 List Price 26.98% 2926876
7/24/2017 $645,000 List Price 14.67% 2944647
6/28/2017 $562,500 List Price 2950831

Nearby Schools

Hebrew Schools Of Northeast Queens(Preschool-2)
P.S. 169 Bay Terrace(Preschool-5)
The Lowell School(4-12)3
Ps 159(Preschool-5)5
North Side School(Preschool-Preschool)
Ps 209 Clearview Gardens(Preschool-5)
Our Lady-Blessed Sacrament School(Preschool-8)3
Bell Academy(6-8)4
The Lowell School(4-12)3
Our Lady-Blessed Sacrament School(Preschool-8)3
Bayside High School(9-12)3
The Lowell School(4-12)3
Holy Cross High School(9-12)4

Interior Details

  • Appliances:1
  • Features:
  • Furnished:
  • Floor Type:
  • Cooling:3
  • Heating:Ha
  • Extras:Parking Level Or Lobby Level To Elevator
  • Other Rooms:5.0

Rooms

  • Dining RoomLr/Dr

Exterior Details

  • Home Construction
  • Features:
  • Exposure:
  • Roof Type:
  • Garage Spaces:
  • Pool:No
  • Utilities:
  • Lot Description:
  • View:N

Community Details

Rental Information

  • Rental Income:$0
  • Rental Number:0

Similar Properties

Property Information Last Updated: 6/4/2019 1:25:16 PM
Property Listed By East Coast REALTORS Inc



>